Stations météo

réclame
Mon MeteoGroup
San Vicente, Espagne (8017): Température de l'air & dewpoint: 14.10.2018 19:00:00 - 20.10.2018 19:00:00 (CEST)San Vicente, Espagne (8017): Vitesse du vent & gusts: 14.10.2018 19:00:00 - 20.10.2018 19:00:00 (CEST)San Vicente, Espagne (8017): Direction du vent: 14.10.2018 19:00:00 - 20.10.2018 19:00:00 (CEST)San Vicente, Espagne (8017): reduced air pressure: 14.10.2018 19:00:00 - 20.10.2018 19:00:00 (CEST)San Vicente, Espagne (8017): Quantités de précipitations: 14.10.2018 19:00:00 - 20.10.2018 19:00:00 (CEST)
Date & Time tt [°C] td [°C] ff [km/h] ff [knt] fx [km/h] fx [knt] dd ppp [hPa] rr [mm]
20.10.2018 19:00:00 - - - - - - - - -
20.10.2018 18:00:00 17,0 15,2 8 4 14 8 E 1023,3 0,0
20.10.2018 17:00:00 17,6 15,8 3 2 10 5 ENE 1023,3 0,0
20.10.2018 16:00:00 17,3 15,3 6 3 10 6 NNE 1023,7 0,0
20.10.2018 15:00:00 17,5 15,3 5 3 11 6 N 1024,0 0,0
20.10.2018 14:00:00 18,2 14,7 3 2 5 3 NNW 1024,5 -
20.10.2018 13:00:00 17,7 14,6 3 2 11 6 NE 1025,3 0,0
20.10.2018 12:00:00 16,3 13,8 7 4 13 7 SSW 1025,3 0,0
20.10.2018 11:00:00 15,3 13,2 7 4 14 8 SSW 1025,1 0,0
20.10.2018 10:00:00 13,5 11,7 11 6 16 8 SSW 1024,7 0,0
20.10.2018 09:00:00 13,0 11,2 11 6 19 10 SSW 1023,6 0,0
20.10.2018 08:00:00 13,0 11,1 11 6 16 9 SSW 1023,0 -
20.10.2018 07:00:00 13,8 12,2 9 5 16 9 SW 1023,1 0,0
20.10.2018 06:00:00 13,5 11,9 10 5 16 8 SSW 1022,9 0,0
20.10.2018 05:00:00 14,5 13,1 6 3 13 7 SSW 1022,6 0,0
20.10.2018 04:00:00 15,1 13,7 3 1 15 8 WSW 1023,0 0,0
20.10.2018 03:00:00 15,5 14,0 6 3 14 8 WSW 1022,8 0,0
20.10.2018 02:00:00 15,1 13,7 8 5 11 6 SSW 1022,8 -
20.10.2018 01:00:00 15,3 13,9 8 4 9 5 SSW 1022,9 0,0
20.10.2018 00:00:00 15,9 14,4 5 3 11 6 SW 1023,0 0,0
19.10.2018 23:00:00 16,3 14,6 0 0 6 3 W 1023,0 0,0
19.10.2018 22:00:00 16,8 15,2 1 1 7 4 SSW 1022,6 0,0
19.10.2018 21:00:00 17,0 15,3 4 2 10 5 W 1022,2 0,0
19.10.2018 20:00:00 - - - - - - - - -
19.10.2018 19:00:00 17,1 15,4 7 4 14 8 W 1020,5 0,0
19.10.2018 18:00:00 18,0 16,1 5 3 14 8 WNW 1020,3 0,0
19.10.2018 17:00:00 18,2 16,4 10 5 16 9 WNW 1020,1 0,0
19.10.2018 16:00:00 18,5 16,6 10 6 21 11 WNW 1020,0 0,0
19.10.2018 15:00:00 17,9 16,0 13 7 24 13 WNW 1020,2 0,0
19.10.2018 14:00:00 17,7 15,7 15 8 27 15 WNW 1020,5 -
19.10.2018 13:00:00 18,2 16,1 14 7 24 13 W 1020,6 0,0
19.10.2018 12:00:00 17,4 15,3 11 6 19 10 WNW 1020,4 0,0
19.10.2018 11:00:00 17,1 15,1 10 5 17 9 W 1019,8 0,0
19.10.2018 10:00:00 16,9 14,9 5 3 16 9 W 1019,0 0,0
19.10.2018 09:00:00 16,5 14,5 2 1 10 6 WSW 1018,3 0,0
19.10.2018 08:00:00 16,2 14,4 3 2 15 8 SW 1017,8 -
19.10.2018 07:00:00 16,5 14,5 8 4 22 12 W 1018,1 0,0
19.10.2018 06:00:00 16,5 14,5 8 4 19 10 W 1018,6 0,0
19.10.2018 05:00:00 16,5 14,7 6 3 16 8 W 1018,3 0,0
19.10.2018 04:00:00 16,5 14,9 8 5 19 11 W 1018,4 0,0
19.10.2018 03:00:00 15,6 13,9 4 2 21 11 SW 1018,3 0,0
19.10.2018 02:00:00 16,0 14,3 5 3 13 7 W 1018,1 -
19.10.2018 01:00:00 16,0 14,3 2 1 14 8 SW 1018,4 0,0
19.10.2018 00:00:00 16,7 14,9 7 4 15 8 W 1018,4 0,0
18.10.2018 23:00:00 16,2 14,2 8 4 17 9 W 1018,0 0,0
18.10.2018 22:00:00 15,7 13,9 3 2 16 8 SW 1017,4 0,0
18.10.2018 21:00:00 15,5 13,9 8 4 13 7 SSW 1017,5 0,0
18.10.2018 20:00:00 16,2 14,5 5 3 11 6 SSW 1017,3 -
18.10.2018 19:00:00 16,6 14,8 5 3 9 5 S 1016,9 0,1
18.10.2018 18:00:00 16,8 15,0 5 3 10 5 SSW 1016,6 0,2
18.10.2018 17:00:00 17,1 15,3 3 2 12 6 W 1016,5 0,0
18.10.2018 16:00:00 17,4 15,5 9 5 14 8 WNW 1016,5 0,0
18.10.2018 15:00:00 17,0 15,0 10 5 16 9 WNW 1016,7 0,0
18.10.2018 14:00:00 17,5 15,5 9 5 13 7 NW 1016,9 -
18.10.2018 13:00:00 17,2 15,2 4 2 9 5 NW 1017,0 0,0
18.10.2018 12:00:00 16,9 15,3 4 2 7 4 WNW 1017,1 0,0
18.10.2018 11:00:00 16,3 14,8 0 0 9 5 NW 1016,9 0,0
18.10.2018 10:00:00 15,2 13,8 6 4 9 5 SSW 1016,7 0,0
18.10.2018 09:00:00 15,0 13,6 5 3 9 5 SSW 1016,1 0,0
18.10.2018 08:00:00 15,0 13,6 4 2 9 5 WSW 1015,5 -
18.10.2018 07:00:00 15,0 13,6 1 0 10 5 SW 1015,3 0,0
18.10.2018 06:00:00 15,1 13,7 6 4 11 6 SSW 1014,7 0,1
18.10.2018 05:00:00 15,2 13,8 6 4 14 8 SSW 1014,7 0,1
18.10.2018 04:00:00 15,2 13,8 8 4 12 6 SW 1014,8 0,4
18.10.2018 03:00:00 15,5 14,0 6 4 12 7 SW 1015,4 0,5
18.10.2018 02:00:00 15,7 14,2 0 0 5 3 S 1015,4 -
18.10.2018 01:00:00 15,8 14,3 1 1 8 4 SSE 1015,4 0,0
18.10.2018 00:00:00 15,9 14,4 4 2 7 4 S 1015,5 0,0
17.10.2018 23:00:00 16,2 14,5 1 0 3 2 SE 1015,4 0,0
17.10.2018 22:00:00 16,4 14,7 0 0 9 5 ENE 1015,1 0,0
17.10.2018 21:00:00 16,3 14,6 2 1 7 4 SSE 1015,2 0,0
17.10.2018 20:00:00 16,0 14,3 1 1 11 6 WNW 1014,8 -
17.10.2018 19:00:00 16,1 14,2 6 4 9 5 WNW 1014,2 0,0
17.10.2018 18:00:00 16,7 14,7 5 3 17 9 NE 1013,7 0,0
17.10.2018 17:00:00 16,5 14,5 9 5 16 8 ENE 1013,8 0,0
17.10.2018 16:00:00 17,4 15,3 3 1 10 5 N 1014,2 0,0
17.10.2018 15:00:00 15,6 13,7 7 4 11 6 NNE 1014,8 0,0
17.10.2018 14:00:00 15,4 13,5 5 3 8 4 NNE 1015,5 -
17.10.2018 13:00:00 15,2 13,3 4 2 6 4 N 1016,6 0,0
17.10.2018 12:00:00 14,6 12,6 4 2 5 3 NNE 1017,1 0,0
17.10.2018 11:00:00 14,4 12,6 3 2 9 5 S 1017,3 0,0
17.10.2018 10:00:00 12,2 10,8 6 3 12 6 SW 1017,6 0,0
17.10.2018 09:00:00 11,4 9,9 9 5 14 8 SW 1017,5 0,0
17.10.2018 08:00:00 10,5 9,3 11 6 13 7 SSW 1017,5 -
17.10.2018 07:00:00 11,0 9,6 10 5 12 7 SSW 1017,8 0,0
17.10.2018 06:00:00 11,2 9,9 11 6 13 7 SW 1017,8 0,0
17.10.2018 05:00:00 11,7 10,4 9 5 13 7 SW 1017,8 0,0
17.10.2018 04:00:00 11,6 10,2 12 6 14 7 SW 1018,1 0,0
17.10.2018 03:00:00 12,1 10,9 10 6 13 7 SSW 1018,6 0,0
17.10.2018 02:00:00 12,5 11,1 10 5 12 6 SSW 1019,2 -
17.10.2018 01:00:00 13,1 11,7 9 5 12 7 SSW 1019,4 0,0
17.10.2018 00:00:00 13,5 12,1 9 5 11 6 SSW 1019,6 0,0
16.10.2018 23:00:00 14,0 12,5 8 5 11 6 SSW 1019,7 0,0
16.10.2018 22:00:00 14,6 13,2 8 4 9 5 SSW 1019,7 0,0
16.10.2018 21:00:00 15,7 14,0 5 3 10 6 ESE 1019,4 0,0
16.10.2018 20:00:00 16,2 14,4 5 3 12 7 E 1019,0 -
16.10.2018 19:00:00 16,9 14,7 3 2 7 4 ESE 1018,6 0,0
16.10.2018 18:00:00 18,5 15,0 3 2 7 4 ENE 1018,3 0,0
16.10.2018 17:00:00 17,8 15,3 5 3 10 5 WNW 1018,3 0,0
16.10.2018 16:00:00 16,9 14,1 6 3 11 6 NW 1018,0 0,0
16.10.2018 15:00:00 16,9 13,9 6 3 11 6 NW 1017,9 0,0
16.10.2018 14:00:00 16,6 14,0 6 3 12 6 NW 1017,8 -
16.10.2018 13:00:00 16,5 13,9 7 4 10 5 NW 1017,9 0,0
16.10.2018 12:00:00 16,3 13,3 4 2 8 4 NNE 1017,4 0,0
16.10.2018 11:00:00 17,4 13,6 4 2 7 4 S 1017,0 0,0
16.10.2018 10:00:00 15,0 12,5 6 3 12 6 SSW 1016,5 0,0
16.10.2018 09:00:00 12,8 10,9 9 5 13 7 SSW 1015,6 0,0
16.10.2018 08:00:00 12,1 10,3 9 5 11 6 SSW 1015,2 -
16.10.2018 07:00:00 12,2 10,4 9 5 16 8 SSW 1014,6 0,0
16.10.2018 06:00:00 11,9 10,3 11 6 19 10 SSW 1014,2 0,0
16.10.2018 05:00:00 11,3 9,7 11 6 16 9 SSW 1013,9 0,0
16.10.2018 04:00:00 11,9 10,3 13 7 16 8 SW 1013,7 0,0
16.10.2018 03:00:00 12,6 11,0 10 5 13 7 SSW 1013,2 0,0
16.10.2018 02:00:00 13,1 11,4 9 5 12 6 SSW 1012,4 -
16.10.2018 01:00:00 14,0 12,2 2 1 10 5 SSW 1012,4 0,0
16.10.2018 00:00:00 14,6 12,8 5 3 9 5 S 1011,9 0,0
15.10.2018 23:00:00 15,3 13,4 3 2 8 5 SW 1011,5 0,0
15.10.2018 22:00:00 16,0 14,0 3 2 8 5 W 1010,8 0,0
15.10.2018 21:00:00 16,1 14,1 4 2 11 6 WNW 1010,5 0,0
15.10.2018 20:00:00 15,9 13,9 9 5 12 6 WNW 1009,9 -
15.10.2018 19:00:00 16,9 14,1 1 1 10 6 N 1008,5 0,0
15.10.2018 18:00:00 17,1 14,0 9 5 16 8 ENE 1007,7 0,0
15.10.2018 17:00:00 17,1 13,3 9 5 17 9 ENE 1007,1 0,0
15.10.2018 16:00:00 17,6 14,5 10 6 16 9 ENE 1007,0 0,0
15.10.2018 15:00:00 17,4 14,3 5 3 12 7 NNE 1006,9 0,0
15.10.2018 14:00:00 17,5 13,9 7 4 10 5 ENE 1006,9 -
15.10.2018 13:00:00 16,5 12,2 5 3 12 7 E 1006,7 0,0
15.10.2018 12:00:00 16,7 11,7 7 4 10 5 ENE 1005,6 0,0
15.10.2018 11:00:00 14,2 11,7 5 3 13 7 S 1005,6 0,0
15.10.2018 10:00:00 11,8 10,0 3 2 13 7 W 1006,0 0,0
15.10.2018 09:00:00 10,2 8,7 6 4 13 7 S 1005,8 0,0
15.10.2018 08:00:00 10,5 8,9 9 5 16 9 S 1005,8 -
15.10.2018 07:00:00 10,4 8,7 13 7 16 9 S 1006,7 0,0
15.10.2018 06:00:00 10,3 8,8 13 7 19 10 S 1007,3 0,0
15.10.2018 05:00:00 10,3 8,8 12 6 16 8 SSW 1007,6 0,0
15.10.2018 04:00:00 10,4 8,7 12 6 16 9 SSW 1008,4 0,0
15.10.2018 03:00:00 11,5 9,0 11 6 14 7 SSW 1009,2 0,0
15.10.2018 02:00:00 11,3 9,2 10 6 13 7 S 1009,4 -
15.10.2018 01:00:00 12,5 8,8 5 3 11 6 SW 1010,4 0,0
15.10.2018 00:00:00 13,1 10,0 7 4 20 11 SSW 1010,8 0,0
14.10.2018 23:00:00 13,6 11,0 4 2 16 9 SW 1010,8 0,0
14.10.2018 22:00:00 13,8 11,4 4 2 19 10 SSW 1010,5 0,0
14.10.2018 21:00:00 14,1 12,3 6 4 27 15 W 1010,5 0,6
14.10.2018 20:00:00 14,6 12,4 18 10 46 25 W 1010,6 -
14.10.2018 19:00:00 15,3 11,4 21 11 33 18 W 1009,6 0,0

tt = Température de l'air
td = dewpoint
ff = Vitesse du vent
fx = gusts
dd = Direction du vent
ppp = reduced air pressure
rr = Quantités de précipitations

stations d'obs. à proximité